sensor_id;sensor_type;location;lat;lon;timestamp;temperature;humidity
49413;DHT22;35493;50.276;9.372;2023-06-19T00:00:50;23.70;54.30
49413;DHT22;35493;50.276;9.372;2023-06-19T00:03:17;23.60;54.60
49413;DHT22;35493;50.276;9.372;2023-06-19T00:05:43;23.60;55.00
49413;DHT22;35493;50.276;9.372;2023-06-19T00:08:10;23.60;55.00
49413;DHT22;35493;50.276;9.372;2023-06-19T00:10:37;23.60;54.80
49413;DHT22;35493;50.276;9.372;2023-06-19T00:13:04;23.60;54.90
49413;DHT22;35493;50.276;9.372;2023-06-19T00:15:31;23.60;55.10
49413;DHT22;35493;50.276;9.372;2023-06-19T00:17:59;23.50;55.20
49413;DHT22;35493;50.276;9.372;2023-06-19T00:20:26;23.40;55.40
49413;DHT22;35493;50.276;9.372;2023-06-19T00:22:53;23.40;55.60
49413;DHT22;35493;50.276;9.372;2023-06-19T00:25:20;23.40;55.70
49413;DHT22;35493;50.276;9.372;2023-06-19T00:27:47;23.40;55.80
49413;DHT22;35493;50.276;9.372;2023-06-19T00:30:14;23.40;55.50
49413;DHT22;35493;50.276;9.372;2023-06-19T00:32:41;23.40;55.50
49413;DHT22;35493;50.276;9.372;2023-06-19T00:35:15;23.30;55.60
49413;DHT22;35493;50.276;9.372;2023-06-19T00:37:43;23.30;55.90
49413;DHT22;35493;50.276;9.372;2023-06-19T00:40:29;23.30;55.80
49413;DHT22;35493;50.276;9.372;2023-06-19T00:42:57;23.30;55.70
49413;DHT22;35493;50.276;9.372;2023-06-19T00:45:25;23.30;55.90
49413;DHT22;35493;50.276;9.372;2023-06-19T00:47:52;23.20;56.10
49413;DHT22;35493;50.276;9.372;2023-06-19T00:50:21;23.20;55.80
49413;DHT22;35493;50.276;9.372;2023-06-19T00:52:49;23.30;55.50
49413;DHT22;35493;50.276;9.372;2023-06-19T00:55:17;23.30;55.50
49413;DHT22;35493;50.276;9.372;2023-06-19T00:57:44;23.30;55.20
49413;DHT22;35493;50.276;9.372;2023-06-19T01:00:12;23.30;55.30
49413;DHT22;35493;50.276;9.372;2023-06-19T01:02:39;23.20;55.20
49413;DHT22;35493;50.276;9.372;2023-06-19T01:05:07;23.20;55.40
49413;DHT22;35493;50.276;9.372;2023-06-19T01:07:41;23.10;55.20
49413;DHT22;35493;50.276;9.372;2023-06-19T01:10:13;23.10;55.10
49413;DHT22;35493;50.276;9.372;2023-06-19T01:12:46;23.20;54.50
49413;DHT22;35493;50.276;9.372;2023-06-19T01:15:18;23.20;54.30
49413;DHT22;35493;50.276;9.372;2023-06-19T01:17:46;23.10;54.60
49413;DHT22;35493;50.276;9.372;2023-06-19T01:20:14;23.10;54.80
49413;DHT22;35493;50.276;9.372;2023-06-19T01:22:43;23.00;55.00
49413;DHT22;35493;50.276;9.372;2023-06-19T01:25:11;23.10;54.50
49413;DHT22;35493;50.276;9.372;2023-06-19T01:27:39;23.10;54.50
49413;DHT22;35493;50.276;9.372;2023-06-19T01:30:08;23.00;54.80
49413;DHT22;35493;50.276;9.372;2023-06-19T01:32:41;23.00;54.90
49413;DHT22;35493;50.276;9.372;2023-06-19T01:35:13;23.00;54.70
49413;DHT22;35493;50.276;9.372;2023-06-19T01:37:43;22.90;54.90
49413;DHT22;35493;50.276;9.372;2023-06-19T01:40:11;22.80;55.20
49413;DHT22;35493;50.276;9.372;2023-06-19T01:42:40;22.80;55.30
49413;DHT22;35493;50.276;9.372;2023-06-19T01:45:08;22.80;55.30
49413;DHT22;35493;50.276;9.372;2023-06-19T01:47:35;22.70;55.70
49413;DHT22;35493;50.276;9.372;2023-06-19T01:50:02;22.60;55.90
49413;DHT22;35493;50.276;9.372;2023-06-19T01:52:30;22.60;56.00
49413;DHT22;35493;50.276;9.372;2023-06-19T01:54:58;22.60;56.20
49413;DHT22;35493;50.276;9.372;2023-06-19T01:57:25;22.60;56.10
49413;DHT22;35493;50.276;9.372;2023-06-19T01:59:52;22.60;55.50
49413;DHT22;35493;50.276;9.372;2023-06-19T02:02:21;22.60;55.50
49413;DHT22;35493;50.276;9.372;2023-06-19T02:04:49;22.50;55.80
49413;DHT22;35493;50.276;9.372;2023-06-19T02:07:16;22.50;55.60
49413;DHT22;35493;50.276;9.372;2023-06-19T02:09:43;22.50;55.70
49413;DHT22;35493;50.276;9.372;2023-06-19T02:12:11;22.40;55.90
49413;DHT22;35493;50.276;9.372;2023-06-19T02:14:38;22.40;56.10
49413;DHT22;35493;50.276;9.372;2023-06-19T02:17:05;22.40;56.20
49413;DHT22;35493;50.276;9.372;2023-06-19T02:19:34;22.30;56.50
49413;DHT22;35493;50.276;9.372;2023-06-19T02:22:01;22.30;56.80
49413;DHT22;35493;50.276;9.372;2023-06-19T02:24:28;22.20;57.10
49413;DHT22;35493;50.276;9.372;2023-06-19T02:26:55;22.20;57.30
49413;DHT22;35493;50.276;9.372;2023-06-19T02:29:25;22.10;57.90
49413;DHT22;35493;50.276;9.372;2023-06-19T02:31:52;22.10;58.20
49413;DHT22;35493;50.276;9.372;2023-06-19T02:34:18;22.10;58.40
49413;DHT22;35493;50.276;9.372;2023-06-19T02:36:46;21.90;58.80
49413;DHT22;35493;50.276;9.372;2023-06-19T02:39:13;21.90;59.00
49413;DHT22;35493;50.276;9.372;2023-06-19T02:41:40;21.90;59.20
49413;DHT22;35493;50.276;9.372;2023-06-19T02:44:11;21.80;59.50
49413;DHT22;35493;50.276;9.372;2023-06-19T02:46:39;21.80;59.60
49413;DHT22;35493;50.276;9.372;2023-06-19T02:49:08;21.80;59.60
49413;DHT22;35493;50.276;9.372;2023-06-19T02:51:36;21.80;59.70
49413;DHT22;35493;50.276;9.372;2023-06-19T02:54:04;21.90;59.60
49413;DHT22;35493;50.276;9.372;2023-06-19T02:56:32;21.80;59.60
49413;DHT22;35493;50.276;9.372;2023-06-19T02:58:59;21.90;59.30
49413;DHT22;35493;50.276;9.372;2023-06-19T03:01:26;21.90;59.30
49413;DHT22;35493;50.276;9.372;2023-06-19T03:03:54;21.90;59.40
49413;DHT22;35493;50.276;9.372;2023-06-19T03:06:21;21.80;59.50
49413;DHT22;35493;50.276;9.372;2023-06-19T03:08:48;21.80;59.60
49413;DHT22;35493;50.276;9.372;2023-06-19T03:11:15;21.70;59.80
49413;DHT22;35493;50.276;9.372;2023-06-19T03:13:46;21.70;59.90
49413;DHT22;35493;50.276;9.372;2023-06-19T03:16:13;21.70;60.00
49413;DHT22;35493;50.276;9.372;2023-06-19T03:18:41;21.60;60.00
49413;DHT22;35493;50.276;9.372;2023-06-19T03:21:11;21.60;60.20
49413;DHT22;35493;50.276;9.372;2023-06-19T03:23:39;21.60;60.10
49413;DHT22;35493;50.276;9.372;2023-06-19T03:26:07;21.70;60.00
49413;DHT22;35493;50.276;9.372;2023-06-19T03:28:36;21.70;59.80
49413;DHT22;35493;50.276;9.372;2023-06-19T03:31:04;21.60;59.80
49413;DHT22;35493;50.276;9.372;2023-06-19T03:33:31;21.60;59.80
49413;DHT22;35493;50.276;9.372;2023-06-19T03:35:58;21.60;59.60
49413;DHT22;35493;50.276;9.372;2023-06-19T03:38:38;21.60;59.60
49413;DHT22;35493;50.276;9.372;2023-06-19T03:41:07;21.60;59.40
49413;DHT22;35493;50.276;9.372;2023-06-19T03:43:34;21.60;59.40
49413;DHT22;35493;50.276;9.372;2023-06-19T03:46:01;21.60;59.20
49413;DHT22;35493;50.276;9.372;2023-06-19T03:48:27;21.60;58.90
49413;DHT22;35493;50.276;9.372;2023-06-19T03:50:54;21.60;58.90
49413;DHT22;35493;50.276;9.372;2023-06-19T03:53:21;21.60;58.80
49413;DHT22;35493;50.276;9.372;2023-06-19T03:55:50;21.60;58.90
49413;DHT22;35493;50.276;9.372;2023-06-19T03:58:17;21.60;59.00
49413;DHT22;35493;50.276;9.372;2023-06-19T04:00:44;21.60;59.40
49413;DHT22;35493;50.276;9.372;2023-06-19T04:03:11;21.60;59.50
49413;DHT22;35493;50.276;9.372;2023-06-19T04:05:38;21.50;59.60
49413;DHT22;35493;50.276;9.372;2023-06-19T04:08:07;21.50;59.50
49413;DHT22;35493;50.276;9.372;2023-06-19T04:10:34;21.50;59.60
49413;DHT22;35493;50.276;9.372;2023-06-19T04:13:03;21.50;59.70
49413;DHT22;35493;50.276;9.372;2023-06-19T04:15:32;21.50;59.80
49413;DHT22;35493;50.276;9.372;2023-06-19T04:18:01;21.40;59.90
49413;DHT22;35493;50.276;9.372;2023-06-19T04:20:29;21.50;60.00
49413;DHT22;35493;50.276;9.372;2023-06-19T04:22:56;21.50;60.30
49413;DHT22;35493;50.276;9.372;2023-06-19T04:25:23;21.50;60.50
49413;DHT22;35493;50.276;9.372;2023-06-19T04:27:50;21.50;60.70
49413;DHT22;35493;50.276;9.372;2023-06-19T04:30:18;21.50;60.80
49413;DHT22;35493;50.276;9.372;2023-06-19T04:32:46;21.60;61.00
49413;DHT22;35493;50.276;9.372;2023-06-19T04:35:13;21.60;61.00
49413;DHT22;35493;50.276;9.372;2023-06-19T04:37:40;21.60;60.80
49413;DHT22;35493;50.276;9.372;2023-06-19T04:40:07;21.60;60.80
49413;DHT22;35493;50.276;9.372;2023-06-19T04:42:34;21.60;60.30
49413;DHT22;35493;50.276;9.372;2023-06-19T04:45:04;21.70;60.40
49413;DHT22;35493;50.276;9.372;2023-06-19T04:47:34;21.60;60.20
49413;DHT22;35493;50.276;9.372;2023-06-19T04:50:01;21.70;60.40
49413;DHT22;35493;50.276;9.372;2023-06-19T04:52:28;21.70;60.00
49413;DHT22;35493;50.276;9.372;2023-06-19T04:54:55;21.70;59.90
49413;DHT22;35493;50.276;9.372;2023-06-19T04:57:21;21.70;59.90
49413;DHT22;35493;50.276;9.372;2023-06-19T04:59:48;21.70;59.90
49413;DHT22;35493;50.276;9.372;2023-06-19T05:02:15;21.80;59.80
49413;DHT22;35493;50.276;9.372;2023-06-19T05:04:43;21.80;59.20
49413;DHT22;35493;50.276;9.372;2023-06-19T05:07:10;21.90;59.00
49413;DHT22;35493;50.276;9.372;2023-06-19T05:09:38;21.90;58.80
49413;DHT22;35493;50.276;9.372;2023-06-19T05:12:05;22.00;58.90
49413;DHT22;35493;50.276;9.372;2023-06-19T05:14:32;22.10;59.20
49413;DHT22;35493;50.276;9.372;2023-06-19T05:16:59;22.00;59.30
49413;DHT22;35493;50.276;9.372;2023-06-19T05:19:26;22.10;59.40
49413;DHT22;35493;50.276;9.372;2023-06-19T05:21:54;22.10;59.40
49413;DHT22;35493;50.276;9.372;2023-06-19T05:24:21;22.20;58.90
49413;DHT22;35493;50.276;9.372;2023-06-19T05:26:48;22.30;60.00
49413;DHT22;35493;50.276;9.372;2023-06-19T05:29:15;22.40;60.20
49413;DHT22;35493;50.276;9.372;2023-06-19T05:31:42;22.40;60.10
49413;DHT22;35493;50.276;9.372;2023-06-19T05:34:09;22.50;60.20
49413;DHT22;35493;50.276;9.372;2023-06-19T05:36:36;22.50;60.00
49413;DHT22;35493;50.276;9.372;2023-06-19T05:39:04;22.50;60.30
49413;DHT22;35493;50.276;9.372;2023-06-19T05:41:31;22.60;60.00
49413;DHT22;35493;50.276;9.372;2023-06-19T05:43:58;22.60;60.20
49413;DHT22;35493;50.276;9.372;2023-06-19T05:46:25;22.70;60.30
49413;DHT22;35493;50.276;9.372;2023-06-19T05:48:52;22.80;60.40
49413;DHT22;35493;50.276;9.372;2023-06-19T05:51:20;22.90;60.40
49413;DHT22;35493;50.276;9.372;2023-06-19T05:53:47;23.00;60.40
49413;DHT22;35493;50.276;9.372;2023-06-19T05:56:16;23.00;60.30
49413;DHT22;35493;50.276;9.372;2023-06-19T05:58:43;23.10;60.10
49413;DHT22;35493;50.276;9.372;2023-06-19T06:01:10;23.20;60.20
49413;DHT22;35493;50.276;9.372;2023-06-19T06:03:37;23.20;60.30
49413;DHT22;35493;50.276;9.372;2023-06-19T06:06:05;23.30;60.20
49413;DHT22;35493;50.276;9.372;2023-06-19T06:08:32;23.20;60.30
49413;DHT22;35493;50.276;9.372;2023-06-19T06:10:59;23.30;60.20
49413;DHT22;35493;50.276;9.372;2023-06-19T06:13:27;23.20;60.60
49413;DHT22;35493;50.276;9.372;2023-06-19T06:15:54;23.20;60.40
49413;DHT22;35493;50.276;9.372;2023-06-19T06:18:21;23.30;60.50
49413;DHT22;35493;50.276;9.372;2023-06-19T06:20:48;23.30;60.90
49413;DHT22;35493;50.276;9.372;2023-06-19T06:23:15;23.20;61.00
49413;DHT22;35493;50.276;9.372;2023-06-19T06:25:42;23.20;60.50
49413;DHT22;35493;50.276;9.372;2023-06-19T06:28:11;23.20;60.60
49413;DHT22;35493;50.276;9.372;2023-06-19T06:30:40;23.20;60.90
49413;DHT22;35493;50.276;9.372;2023-06-19T06:33:07;23.20;61.10
49413;DHT22;35493;50.276;9.372;2023-06-19T06:35:34;23.20;61.40
49413;DHT22;35493;50.276;9.372;2023-06-19T06:38:02;23.30;61.10
49413;DHT22;35493;50.276;9.372;2023-06-19T06:40:28;23.50;61.10
49413;DHT22;35493;50.276;9.372;2023-06-19T06:42:55;23.60;60.70
49413;DHT22;35493;50.276;9.372;2023-06-19T06:45:22;23.70;60.50
49413;DHT22;35493;50.276;9.372;2023-06-19T06:47:51;23.90;60.20
49413;DHT22;35493;50.276;9.372;2023-06-19T06:50:18;23.90;60.30
49413;DHT22;35493;50.276;9.372;2023-06-19T06:52:45;24.10;60.20
49413;DHT22;35493;50.276;9.372;2023-06-19T06:55:12;24.10;59.70
49413;DHT22;35493;50.276;9.372;2023-06-19T06:57:39;24.30;59.40
49413;DHT22;35493;50.276;9.372;2023-06-19T07:00:07;24.40;58.60
49413;DHT22;35493;50.276;9.372;2023-06-19T07:02:35;24.50;58.90
49413;DHT22;35493;50.276;9.372;2023-06-19T07:05:06;24.60;58.30
49413;DHT22;35493;50.276;9.372;2023-06-19T07:07:33;24.70;58.00
49413;DHT22;35493;50.276;9.372;2023-06-19T07:10:00;24.90;57.50
49413;DHT22;35493;50.276;9.372;2023-06-19T07:12:27;25.10;57.40
49413;DHT22;35493;50.276;9.372;2023-06-19T07:14:54;25.20;56.60
49413;DHT22;35493;50.276;9.372;2023-06-19T07:17:22;25.30;56.80
49413;DHT22;35493;50.276;9.372;2023-06-19T07:19:49;25.40;56.60
49413;DHT22;35493;50.276;9.372;2023-06-19T07:22:18;25.50;56.40
49413;DHT22;35493;50.276;9.372;2023-06-19T07:24:45;25.60;56.00
49413;DHT22;35493;50.276;9.372;2023-06-19T07:27:12;25.70;55.40
49413;DHT22;35493;50.276;9.372;2023-06-19T07:29:39;25.80;55.10
49413;DHT22;35493;50.276;9.372;2023-06-19T07:32:07;25.80;55.10
49413;DHT22;35493;50.276;9.372;2023-06-19T07:34:34;25.80;55.20
49413;DHT22;35493;50.276;9.372;2023-06-19T07:37:01;25.90;55.00
49413;DHT22;35493;50.276;9.372;2023-06-19T07:39:29;26.00;54.60
49413;DHT22;35493;50.276;9.372;2023-06-19T07:41:57;26.10;54.70
49413;DHT22;35493;50.276;9.372;2023-06-19T07:44:24;26.10;54.50
49413;DHT22;35493;50.276;9.372;2023-06-19T07:46:50;26.20;54.40
49413;DHT22;35493;50.276;9.372;2023-06-19T07:49:17;26.40;54.30
49413;DHT22;35493;50.276;9.372;2023-06-19T07:51:44;26.50;53.90
49413;DHT22;35493;50.276;9.372;2023-06-19T07:54:11;26.50;53.40
49413;DHT22;35493;50.276;9.372;2023-06-19T07:56:40;26.60;53.10
49413;DHT22;35493;50.276;9.372;2023-06-19T07:59:07;26.70;53.20
49413;DHT22;35493;50.276;9.372;2023-06-19T08:01:34;26.80;53.00
49413;DHT22;35493;50.276;9.372;2023-06-19T08:04:01;27.00;52.50
49413;DHT22;35493;50.276;9.372;2023-06-19T08:06:28;27.10;52.70
49413;DHT22;35493;50.276;9.372;2023-06-19T08:08:55;27.10;52.10
49413;DHT22;35493;50.276;9.372;2023-06-19T08:11:22;27.10;51.80
49413;DHT22;35493;50.276;9.372;2023-06-19T08:13:50;27.10;51.70
49413;DHT22;35493;50.276;9.372;2023-06-19T08:16:17;27.10;52.10
49413;DHT22;35493;50.276;9.372;2023-06-19T08:18:44;27.20;52.00
49413;DHT22;35493;50.276;9.372;2023-06-19T08:21:11;27.20;51.80
49413;DHT22;35493;50.276;9.372;2023-06-19T08:23:38;27.30;51.70
49413;DHT22;35493;50.276;9.372;2023-06-19T08:26:06;27.20;52.00
49413;DHT22;35493;50.276;9.372;2023-06-19T08:28:34;27.10;52.10
49413;DHT22;35493;50.276;9.372;2023-06-19T08:31:02;27.00;52.30
49413;DHT22;35493;50.276;9.372;2023-06-19T08:33:29;27.10;51.90
49413;DHT22;35493;50.276;9.372;2023-06-19T08:35:56;27.20;52.10
49413;DHT22;35493;50.276;9.372;2023-06-19T08:38:23;27.40;52.20
49413;DHT22;35493;50.276;9.372;2023-06-19T08:40:50;27.60;51.50
49413;DHT22;35493;50.276;9.372;2023-06-19T08:43:17;27.60;51.40
49413;DHT22;35493;50.276;9.372;2023-06-19T08:45:53;27.70;51.10
49413;DHT22;35493;50.276;9.372;2023-06-19T08:48:24;27.90;51.10
49413;DHT22;35493;50.276;9.372;2023-06-19T08:50:51;28.10;50.90
49413;DHT22;35493;50.276;9.372;2023-06-19T08:53:18;28.20;51.00
49413;DHT22;35493;50.276;9.372;2023-06-19T08:55:45;28.30;50.50
49413;DHT22;35493;50.276;9.372;2023-06-19T08:58:11;28.20;50.50
49413;DHT22;35493;50.276;9.372;2023-06-19T09:00:38;27.90;50.70
49413;DHT22;35493;50.276;9.372;2023-06-19T09:03:05;27.70;50.80
49413;DHT22;35493;50.276;9.372;2023-06-19T09:05:33;27.60;51.40
49413;DHT22;35493;50.276;9.372;2023-06-19T09:08:13;27.50;51.60
49413;DHT22;35493;50.276;9.372;2023-06-19T09:10:41;27.50;51.90
49413;DHT22;35493;50.276;9.372;2023-06-19T09:13:08;27.50;52.50
49413;DHT22;35493;50.276;9.372;2023-06-19T09:15:36;27.40;52.30
49413;DHT22;35493;50.276;9.372;2023-06-19T09:18:06;27.40;51.80
49413;DHT22;35493;50.276;9.372;2023-06-19T09:20:37;27.50;52.20
49413;DHT22;35493;50.276;9.372;2023-06-19T09:23:04;27.60;52.00
49413;DHT22;35493;50.276;9.372;2023-06-19T09:25:31;27.80;52.00
49413;DHT22;35493;50.276;9.372;2023-06-19T09:27:58;27.90;51.90
49413;DHT22;35493;50.276;9.372;2023-06-19T09:30:25;28.00;51.70
49413;DHT22;35493;50.276;9.372;2023-06-19T09:32:52;28.10;51.80
49413;DHT22;35493;50.276;9.372;2023-06-19T09:35:19;28.20;51.80
49413;DHT22;35493;50.276;9.372;2023-06-19T09:37:49;28.40;51.20
49413;DHT22;35493;50.276;9.372;2023-06-19T09:40:18;28.50;50.80
49413;DHT22;35493;50.276;9.372;2023-06-19T09:42:46;28.60;50.50
49413;DHT22;35493;50.276;9.372;2023-06-19T09:45:24;28.70;50.20
49413;DHT22;35493;50.276;9.372;2023-06-19T09:47:52;28.60;50.30
49413;DHT22;35493;50.276;9.372;2023-06-19T09:50:22;28.70;50.00
49413;DHT22;35493;50.276;9.372;2023-06-19T09:52:55;28.90;49.90
49413;DHT22;35493;50.276;9.372;2023-06-19T09:55:22;29.00;49.80
49413;DHT22;35493;50.276;9.372;2023-06-19T09:57:54;29.10;49.70
49413;DHT22;35493;50.276;9.372;2023-06-19T10:00:21;29.20;49.50
49413;DHT22;35493;50.276;9.372;2023-06-19T10:02:52;29.30;49.20
49413;DHT22;35493;50.276;9.372;2023-06-19T10:05:28;29.50;49.00
49413;DHT22;35493;50.276;9.372;2023-06-19T10:07:57;29.60;49.00
49413;DHT22;35493;50.276;9.372;2023-06-19T10:10:26;29.70;48.90
49413;DHT22;35493;50.276;9.372;2023-06-19T10:12:54;29.80;48.50
49413;DHT22;35493;50.276;9.372;2023-06-19T10:15:22;29.90;48.10
49413;DHT22;35493;50.276;9.372;2023-06-19T10:17:51;29.60;48.20
49413;DHT22;35493;50.276;9.372;2023-06-19T10:20:24;29.60;48.50
49413;DHT22;35493;50.276;9.372;2023-06-19T10:22:52;29.70;48.50
49413;DHT22;35493;50.276;9.372;2023-06-19T10:25:27;29.70;48.50
49413;DHT22;35493;50.276;9.372;2023-06-19T10:27:54;29.70;48.30
49413;DHT22;35493;50.276;9.372;2023-06-19T10:30:21;29.60;48.50
49413;DHT22;35493;50.276;9.372;2023-06-19T10:32:48;29.70;48.50
49413;DHT22;35493;50.276;9.372;2023-06-19T10:35:17;29.90;48.40
49413;DHT22;35493;50.276;9.372;2023-06-19T10:37:47;30.00;47.90
49413;DHT22;35493;50.276;9.372;2023-06-19T10:40:17;30.00;48.00
49413;DHT22;35493;50.276;9.372;2023-06-19T10:42:46;30.00;47.50
49413;DHT22;35493;50.276;9.372;2023-06-19T10:45:14;30.10;47.50
49413;DHT22;35493;50.276;9.372;2023-06-19T10:47:42;30.10;47.50
49413;DHT22;35493;50.276;9.372;2023-06-19T10:50:11;30.30;47.30
49413;DHT22;35493;50.276;9.372;2023-06-19T10:52:42;30.40;47.40
49413;DHT22;35493;50.276;9.372;2023-06-19T10:55:11;30.30;47.60
49413;DHT22;35493;50.276;9.372;2023-06-19T10:57:38;30.10;47.90
49413;DHT22;35493;50.276;9.372;2023-06-19T11:00:08;29.90;47.90
49413;DHT22;35493;50.276;9.372;2023-06-19T11:02:39;29.80;48.40
49413;DHT22;35493;50.276;9.372;2023-06-19T11:05:09;29.60;48.80
49413;DHT22;35493;50.276;9.372;2023-06-19T11:07:37;29.60;48.90
49413;DHT22;35493;50.276;9.372;2023-06-19T11:10:05;29.80;49.20
49413;DHT22;35493;50.276;9.372;2023-06-19T11:12:32;30.00;48.50
49413;DHT22;35493;50.276;9.372;2023-06-19T11:15:03;30.10;48.20
49413;DHT22;35493;50.276;9.372;2023-06-19T11:17:32;30.20;47.40
49413;DHT22;35493;50.276;9.372;2023-06-19T11:19:59;30.30;47.00
49413;DHT22;35493;50.276;9.372;2023-06-19T11:22:36;30.40;46.70
49413;DHT22;35493;50.276;9.372;2023-06-19T11:25:05;30.50;46.60
49413;DHT22;35493;50.276;9.372;2023-06-19T11:27:32;30.60;46.60
49413;DHT22;35493;50.276;9.372;2023-06-19T11:30:01;30.70;46.20
49413;DHT22;35493;50.276;9.372;2023-06-19T11:32:35;30.60;46.40
49413;DHT22;35493;50.276;9.372;2023-06-19T11:35:08;30.60;46.30
49413;DHT22;35493;50.276;9.372;2023-06-19T11:37:37;30.70;46.70
49413;DHT22;35493;50.276;9.372;2023-06-19T11:40:07;30.70;46.70
49413;DHT22;35493;50.276;9.372;2023-06-19T11:42:45;30.70;46.80
49413;DHT22;35493;50.276;9.372;2023-06-19T11:45:13;30.70;46.70
49413;DHT22;35493;50.276;9.372;2023-06-19T11:47:43;30.60;46.60
49413;DHT22;35493;50.276;9.372;2023-06-19T11:50:10;30.30;46.40
49413;DHT22;35493;50.276;9.372;2023-06-19T11:52:38;30.20;47.10
49413;DHT22;35493;50.276;9.372;2023-06-19T11:55:05;30.10;47.20
49413;DHT22;35493;50.276;9.372;2023-06-19T11:57:32;30.00;47.40
49413;DHT22;35493;50.276;9.372;2023-06-19T11:59:59;30.00;47.60
49413;DHT22;35493;50.276;9.372;2023-06-19T12:02:26;29.90;47.60
49413;DHT22;35493;50.276;9.372;2023-06-19T12:04:54;29.90;47.50
49413;DHT22;35493;50.276;9.372;2023-06-19T12:07:22;29.80;47.70
49413;DHT22;35493;50.276;9.372;2023-06-19T12:10:02;29.90;47.80
49413;DHT22;35493;50.276;9.372;2023-06-19T12:12:30;29.90;47.90
49413;DHT22;35493;50.276;9.372;2023-06-19T12:14:59;29.90;47.90
49413;DHT22;35493;50.276;9.372;2023-06-19T12:17:26;29.90;47.70
49413;DHT22;35493;50.276;9.372;2023-06-19T12:19:56;29.80;48.00
49413;DHT22;35493;50.276;9.372;2023-06-19T12:22:22;29.80;48.00
49413;DHT22;35493;50.276;9.372;2023-06-19T12:24:49;29.70;47.90
49413;DHT22;35493;50.276;9.372;2023-06-19T12:27:16;29.70;48.00
49413;DHT22;35493;50.276;9.372;2023-06-19T12:29:43;29.70;48.10
49413;DHT22;35493;50.276;9.372;2023-06-19T12:32:10;29.80;48.00
49413;DHT22;35493;50.276;9.372;2023-06-19T12:34:37;29.70;48.00
49413;DHT22;35493;50.276;9.372;2023-06-19T12:37:05;29.80;47.60
49413;DHT22;35493;50.276;9.372;2023-06-19T12:39:33;30.00;47.20
49413;DHT22;35493;50.276;9.372;2023-06-19T12:42:00;30.00;47.30
49413;DHT22;35493;50.276;9.372;2023-06-19T12:44:27;30.00;47.00
49413;DHT22;35493;50.276;9.372;2023-06-19T12:46:54;29.90;47.10
49413;DHT22;35493;50.276;9.372;2023-06-19T12:49:21;29.90;47.10
49413;DHT22;35493;50.276;9.372;2023-06-19T12:51:48;29.80;47.30
49413;DHT22;35493;50.276;9.372;2023-06-19T12:54:18;29.80;47.30
49413;DHT22;35493;50.276;9.372;2023-06-19T12:56:45;29.80;47.30
49413;DHT22;35493;50.276;9.372;2023-06-19T12:59:12;29.80;47.60
49413;DHT22;35493;50.276;9.372;2023-06-19T13:01:38;29.80;47.60
49413;DHT22;35493;50.276;9.372;2023-06-19T13:04:05;29.70;47.50
49413;DHT22;35493;50.276;9.372;2023-06-19T13:06:32;29.70;47.70
49413;DHT22;35493;50.276;9.372;2023-06-19T13:09:00;29.70;47.50
49413;DHT22;35493;50.276;9.372;2023-06-19T13:11:29;29.80;47.60
49413;DHT22;35493;50.276;9.372;2023-06-19T13:13:55;29.70;47.50
49413;DHT22;35493;50.276;9.372;2023-06-19T13:16:22;29.70;47.20
49413;DHT22;35493;50.276;9.372;2023-06-19T13:18:51;29.70;47.20
49413;DHT22;35493;50.276;9.372;2023-06-19T13:21:18;29.70;47.30
49413;DHT22;35493;50.276;9.372;2023-06-19T13:23:45;29.60;47.10
49413;DHT22;35493;50.276;9.372;2023-06-19T13:26:14;29.60;47.10
49413;DHT22;35493;50.276;9.372;2023-06-19T13:28:43;29.60;47.20
49413;DHT22;35493;50.276;9.372;2023-06-19T13:31:10;29.60;47.00
49413;DHT22;35493;50.276;9.372;2023-06-19T13:33:37;29.60;46.80
49413;DHT22;35493;50.276;9.372;2023-06-19T13:36:04;29.60;47.00
49413;DHT22;35493;50.276;9.372;2023-06-19T13:38:31;29.70;46.80
49413;DHT22;35493;50.276;9.372;2023-06-19T13:40:58;29.70;47.00
49413;DHT22;35493;50.276;9.372;2023-06-19T13:43:25;29.70;46.70
49413;DHT22;35493;50.276;9.372;2023-06-19T13:45:53;29.60;46.80
49413;DHT22;35493;50.276;9.372;2023-06-19T13:48:20;29.60;46.80
49413;DHT22;35493;50.276;9.372;2023-06-19T13:50:47;29.70;47.00
49413;DHT22;35493;50.276;9.372;2023-06-19T13:53:14;29.80;46.60
49413;DHT22;35493;50.276;9.372;2023-06-19T13:55:41;29.80;46.90
49413;DHT22;35493;50.276;9.372;2023-06-19T13:58:08;29.80;47.00
49413;DHT22;35493;50.276;9.372;2023-06-19T14:00:35;29.90;47.00
49413;DHT22;35493;50.276;9.372;2023-06-19T14:03:04;29.90;46.90
49413;DHT22;35493;50.276;9.372;2023-06-19T14:05:32;29.90;46.50
49413;DHT22;35493;50.276;9.372;2023-06-19T14:07:59;29.90;46.60
49413;DHT22;35493;50.276;9.372;2023-06-19T14:10:26;29.90;46.30
49413;DHT22;35493;50.276;9.372;2023-06-19T14:12:53;29.80;46.30
49413;DHT22;35493;50.276;9.372;2023-06-19T14:15:20;29.80;46.30
49413;DHT22;35493;50.276;9.372;2023-06-19T14:17:47;29.80;46.60
49413;DHT22;35493;50.276;9.372;2023-06-19T14:20:15;29.80;46.50
49413;DHT22;35493;50.276;9.372;2023-06-19T14:22:42;29.80;46.70
49413;DHT22;35493;50.276;9.372;2023-06-19T14:25:09;29.80;46.60
49413;DHT22;35493;50.276;9.372;2023-06-19T14:27:37;29.80;46.30
49413;DHT22;35493;50.276;9.372;2023-06-19T14:30:05;29.90;45.90
49413;DHT22;35493;50.276;9.372;2023-06-19T14:32:34;29.80;46.20
49413;DHT22;35493;50.276;9.372;2023-06-19T14:35:01;29.80;46.20
49413;DHT22;35493;50.276;9.372;2023-06-19T14:37:29;29.80;46.40
49413;DHT22;35493;50.276;9.372;2023-06-19T14:39:56;29.80;46.40
49413;DHT22;35493;50.276;9.372;2023-06-19T14:42:23;29.80;46.30
49413;DHT22;35493;50.276;9.372;2023-06-19T14:44:50;29.80;46.20
49413;DHT22;35493;50.276;9.372;2023-06-19T14:47:17;29.80;46.10
49413;DHT22;35493;50.276;9.372;2023-06-19T14:49:44;29.80;46.10
49413;DHT22;35493;50.276;9.372;2023-06-19T14:52:11;29.80;45.80
49413;DHT22;35493;50.276;9.372;2023-06-19T14:54:39;29.80;46.10
49413;DHT22;35493;50.276;9.372;2023-06-19T14:57:06;29.80;45.90
49413;DHT22;35493;50.276;9.372;2023-06-19T14:59:33;29.80;46.20
49413;DHT22;35493;50.276;9.372;2023-06-19T15:02:00;29.80;45.90
49413;DHT22;35493;50.276;9.372;2023-06-19T15:04:28;29.70;46.10
49413;DHT22;35493;50.276;9.372;2023-06-19T15:06:55;29.70;46.10
49413;DHT22;35493;50.276;9.372;2023-06-19T15:09:23;29.70;46.20
49413;DHT22;35493;50.276;9.372;2023-06-19T15:11:52;29.70;46.10
49413;DHT22;35493;50.276;9.372;2023-06-19T15:14:19;29.70;46.00
49413;DHT22;35493;50.276;9.372;2023-06-19T15:16:46;29.70;46.00
49413;DHT22;35493;50.276;9.372;2023-06-19T15:19:13;29.70;45.80
49413;DHT22;35493;50.276;9.372;2023-06-19T15:21:41;29.60;45.90
49413;DHT22;35493;50.276;9.372;2023-06-19T15:24:08;29.60;46.20
49413;DHT22;35493;50.276;9.372;2023-06-19T15:26:35;29.60;45.90
49413;DHT22;35493;50.276;9.372;2023-06-19T15:29:03;29.60;45.70
49413;DHT22;35493;50.276;9.372;2023-06-19T15:31:30;29.60;45.40
49413;DHT22;35493;50.276;9.372;2023-06-19T15:33:57;29.50;45.50